• Join FlightAware (Why Join?)
  • Login
  • US Flag 
05:09PM EDT


 

Airport Tracker/Info


-or-


 

Live Flight TrackerFlight Track Log ✈ LOG6856 ✈ 06-Mar-2014 ✈ EGPR / BRR - EGPF / GLA

Flight Track Log - Related Links

Times and Time Zones

All times are in EST time to prevent confusion due to time zone crossing. See the LOG6856 flight status page for this flight to view local times or setup timezone preferences in your user account.

Time Position Orientation Groundspeed Altitude Reporting Facility
EST Latitude Longitude Course Direction KTS MPH feet Rate Location/Type
09:53AM 57.0362 -7.4707 20° North 174 200 900  Level FlightAware UK
09:54AM 57.0470 -7.4635 20° North 174 200 1,300 960 Climbing FlightAware UK
09:54AM 57.0487 -7.4440 81° East 174 200 1,500 780 Climbing FlightAware UK
09:54AM 57.0475 -7.4279 97° East 174 200 1,800 960 Climbing FlightAware UK
09:55AM 57.0448 -7.4122 108° East 174 200 2,100 780 Climbing FlightAware UK
09:55AM 57.0397 -7.3995 127° Southeast 174 200 2,300 480 Climbing FlightAware UK
09:55AM 57.0329 -7.3872 135° Southeast 174 200 2,400 300 Climbing FlightAware UK
09:55AM 57.0276 -7.3714 122° Southeast 174 200 2,500 480 Climbing FlightAware UK
09:56AM 57.0220 -7.3538 120° Southeast 174 200 2,700 660 Climbing FlightAware UK
09:56AM 57.0159 -7.3386 127° Southeast 174 200 2,900 480 Climbing FlightAware UK
09:56AM 57.0094 -7.3225 126° Southeast 174 200 3,000 480 Climbing FlightAware UK
09:57AM 57.0034 -7.3063 124° Southeast 174 200 3,200 780 Climbing FlightAware UK
09:57AM 56.9979 -7.2897 121° Southeast 174 200 3,500 660 Climbing FlightAware UK
09:57AM 56.9938 -7.2718 113° Southeast 174 200 3,600 480 Climbing FlightAware UK
09:58AM 56.9889 -7.2544 117° Southeast 174 200 3,800 780 Climbing FlightAware UK
09:58AM 56.9838 -7.2375 119° Southeast 174 200 4,100 780 Climbing FlightAware UK
09:58AM 56.9779 -7.2221 125° Southeast 174 200 4,300 480 Climbing FlightAware UK
09:58AM 56.9712 -7.2075 130° Southeast 174 200 4,400 480 Climbing FlightAware UK
09:59AM 56.9641 -7.1934 133° Southeast 174 200 4,600 660 Climbing FlightAware UK
09:59AM 56.9571 -7.1788 131° Southeast 174 200 4,800 660 Climbing FlightAware UK
09:59AM 56.9502 -7.1640 131° Southeast 174 200 5,000 480 Climbing FlightAware UK
10:00AM 56.9435 -7.1489 129° Southeast 174 200 5,100 480 Climbing FlightAware UK
10:00AM 56.9375 -7.1321 123° Southeast 174 200 5,300 780 Climbing FlightAware UK
10:00AM 56.9320 -7.1138 119° Southeast 174 200 5,600 660 Climbing FlightAware UK
10:01AM 56.9266 -7.0939 116° Southeast 174 200 5,700 480 Climbing FlightAware UK
10:01AM 56.9205 -7.0768 123° Southeast 174 200 5,900 780 Climbing FlightAware UK
10:01AM 56.9149 -7.0582 119° Southeast 174 200 6,200 480 Climbing FlightAware UK
10:01AM 56.9083 -7.0399 123° Southeast 174 200 6,200 480 Level FlightAware UK
10:02AM 56.9017 -7.0216 123° Southeast 174 200 6,500 660 Climbing FlightAware UK
10:02AM 56.8951 -7.0037 124° Southeast 174 200 6,600 480 Climbing FlightAware UK
10:02AM 56.8876 -6.9876 130° Southeast 174 200 6,800 480 Climbing FlightAware UK
10:03AM 56.8796 -6.9709 131° Southeast 174 200 6,900 480 Climbing FlightAware UK
10:03AM 56.8720 -6.9539 129° Southeast 174 200 7,100 480 Climbing FlightAware UK
10:03AM 56.8647 -6.9362 127° Southeast 174 200 7,200 480 Climbing FlightAware UK
10:04AM 56.8570 -6.9176 127° Southeast 174 200 7,400 480 Climbing FlightAware UK
10:04AM 56.8496 -6.8988 126° Southeast 174 200 7,500 120 Climbing FlightAware UK
10:04AM 56.8425 -6.8782 122° Southeast 174 200 7,500  Level FlightAware UK
10:04AM 56.8346 -6.8555 123° Southeast 174 200 7,500  Level FlightAware UK
10:05AM 56.8274 -6.8353 123° Southeast 174 200 7,500  Level FlightAware UK
10:05AM 56.8195 -6.8136 124° Southeast 174 200 7,500  Level FlightAware UK
10:05AM 56.8117 -6.7922 124° Southeast 174 200 7,500 -360 Level FlightAware UK
10:06AM 56.8045 -6.7707 122° Southeast 174 200 7,300  Descending FlightAware UK
10:06AM 56.7969 -6.7487 122° Southeast 174 200 7,500 300 Climbing FlightAware UK
10:06AM 56.7891 -6.7284 125° Southeast 174 200 7,500  Level FlightAware UK
10:07AM 56.7807 -6.7093 129° Southeast 174 200 7,500  Level FlightAware UK
10:07AM 56.7723 -6.6901 129° Southeast 174 200 7,500  Level FlightAware UK
10:07AM 56.7639 -6.6705 128° Southeast 174 200 7,500 -180 Level FlightAware UK
10:07AM 56.7558 -6.6507 127° Southeast 174 200 7,400 -180 Descending FlightAware UK
10:08AM 56.7479 -6.6308 126° Southeast 174 200 7,400  Level FlightAware UK
10:08AM 56.7402 -6.6111 126° Southeast 174 200 7,400 120 Level FlightAware UK
10:08AM 56.7327 -6.5910 124° Southeast 174 200 7,500 120 Climbing FlightAware UK
10:09AM 56.7257 -6.5708 122° Southeast 174 200 7,500  Level FlightAware UK
10:09AM 56.7192 -6.5500 120° Southeast 174 200 7,500  Level FlightAware UK
10:09AM 56.7125 -6.5288 120° Southeast 174 200 7,500  Level FlightAware UK
10:10AM 56.7058 -6.5084 121° Southeast 174 200 7,500  Level FlightAware UK
10:10AM 56.6987 -6.4884 123° Southeast 174 200 7,500  Level FlightAware UK
10:10AM 56.6905 -6.4700 129° Southeast 174 200 7,500  Level FlightAware UK
10:10AM 56.6832 -6.4506 124° Southeast 174 200 7,500  Level FlightAware UK
10:11AM 56.6758 -6.4310 124° Southeast 174 200 7,500  Level FlightAware UK
10:11AM 56.6686 -6.4110 123° Southeast 174 200 7,500  Level FlightAware UK
10:11AM 56.6613 -6.3914 124° Southeast 174 200 7,500  Level FlightAware UK
10:12AM 56.6539 -6.3719 125° Southeast 174 200 7,500  Level FlightAware UK
10:12AM 56.6466 -6.3526 124° Southeast 174 200 7,500  Level FlightAware UK
10:12AM 56.6393 -6.3337 125° Southeast 174 200 7,500  Level FlightAware UK
10:13AM 56.6317 -6.3150 126° Southeast 174 200 7,500  Level FlightAware UK
10:13AM 56.6241 -6.2967 127° Southeast 174 200 7,500  Level FlightAware UK
10:13AM 56.6165 -6.2795 129° Southeast 174 200 7,500  Level FlightAware UK
10:13AM 56.6093 -6.2619 127° Southeast 174 200 7,500  Level FlightAware UK
10:14AM 56.6021 -6.2441 126° Southeast 174 200 7,500 -180 Level FlightAware UK
10:14AM 56.5944 -6.2268 129° Southeast 174 200 7,400  Descending FlightAware UK
10:14AM 56.5869 -6.2096 128° Southeast 174 200 7,500 120 Climbing FlightAware UK
10:15AM 56.5797 -6.1922 127° Southeast 174 200 7,500  Level FlightAware UK
10:15AM 56.5724 -6.1747 127° Southeast 174 200 7,500  Level FlightAware UK
10:15AM 56.5654 -6.1565 125° Southeast 174 200 7,500  Level FlightAware UK
10:16AM 56.5583 -6.1387 126° Southeast 174 200 7,500  Level FlightAware UK
10:16AM 56.5512 -6.1209 126° Southeast 174 200 7,500  Level FlightAware UK
10:16AM 56.5443 -6.1028 125° Southeast 174 200 7,500  Level FlightAware UK
10:16AM 56.5374 -6.0844 124° Southeast 174 200 7,500  Level FlightAware UK
10:17AM 56.5308 -6.0655 122° Southeast 174 200 7,500 -180 Level FlightAware UK
10:17AM 56.5241 -6.0467 123° Southeast 174 200 7,400  Descending FlightAware UK
10:17AM 56.5150 -6.0216 123° Southeast 130 150 7,500 120 Climbing FlightAware UK
10:18AM 56.5085 -6.0029 122° Southeast 174 200 7,500  Level FlightAware UK
10:18AM 56.5019 -5.9842 122° Southeast 174 200 7,500  Level FlightAware UK
10:18AM 56.4956 -5.9651 121° Southeast 174 200 7,500  Level FlightAware UK
10:19AM 56.4893 -5.9461 121° Southeast 174 200 7,500  Level FlightAware UK
10:19AM 56.4821 -5.9282 126° Southeast 174 200 7,500  Level FlightAware UK
10:19AM 56.4745 -5.9111 129° Southeast 174 200 7,500  Level FlightAware UK
10:20AM 56.4675 -5.8932 125° Southeast 174 200 7,500  Level FlightAware UK
10:20AM 56.4609 -5.8748 123° Southeast 174 200 7,500 -360 Level FlightAware UK
10:20AM 56.4535 -5.8575 128° Southeast 174 200 7,300  Descending FlightAware UK
10:20AM 56.4459 -5.8403 129° Southeast 174 200 7,500  Climbing FlightAware UK
10:21AM 56.4383 -5.8235 129° Southeast 174 200 7,300  Descending FlightAware UK
10:21AM 56.4304 -5.8074 132° Southeast 174 200 7,500 300 Climbing FlightAware UK
10:21AM 56.4229 -5.7906 129° Southeast 174 200 7,500  Level FlightAware UK
10:22AM 56.4158 -5.7735 127° Southeast 174 200 7,500  Level FlightAware UK
10:22AM 56.4087 -5.7564 127° Southeast 174 200 7,500  Level FlightAware UK
10:22AM 56.3994 -5.7329 126° Southeast 130 150 7,500 -300 Level FlightAware UK
10:23AM 56.3923 -5.7150 126° Southeast 174 200 7,300  Descending FlightAware UK
10:23AM 56.3851 -5.6971 126° Southeast 174 200 7,500 300 Climbing FlightAware UK
10:23AM 56.3782 -5.6785 124° Southeast 174 200 7,500  Level FlightAware UK
10:24AM 56.3716 -5.6599 123° Southeast 174 200 7,500  Level FlightAware UK
10:24AM 56.3648 -5.6414 123° Southeast 174 200 7,500  Level FlightAware UK
10:24AM 56.3580 -5.6232 124° Southeast 174 200 7,500  Level FlightAware UK
10:24AM 56.3511 -5.6051 124° Southeast 174 200 7,500  Level FlightAware UK
10:25AM 56.3441 -5.5875 126° Southeast 174 200 7,500  Level FlightAware UK
10:25AM 56.3371 -5.5698 125° Southeast 174 200 7,500 -360 Level FlightAware UK
10:25AM 56.3294 -5.5528 129° Southeast 174 200 7,300  Descending FlightAware UK
10:26AM 56.3218 -5.5355 128° Southeast 174 200 7,500 300 Climbing FlightAware UK
10:26AM 56.3145 -5.5179 127° Southeast 174 200 7,500  Level FlightAware UK
10:26AM 56.3074 -5.5001 126° Southeast 174 200 7,500  Level FlightAware UK
10:27AM 56.3001 -5.4822 126° Southeast 174 200 7,500  Level FlightAware UK
10:27AM 56.2929 -5.4643 126° Southeast 174 200 7,500  Level FlightAware UK
10:27AM 56.2857 -5.4465 126° Southeast 174 200 7,500  Level FlightAware UK
10:27AM 56.2787 -5.4289 125° Southeast 174 200 7,500  Level FlightAware UK
10:28AM 56.2714 -5.4117 128° Southeast 174 200 7,500 -180 Level FlightAware UK
10:28AM 56.2639 -5.3943 128° Southeast 174 200 7,400  Descending FlightAware UK
10:28AM 56.2556 -5.3779 132° Southeast 174 200 7,500 120 Climbing FlightAware UK
10:29AM 56.2480 -5.3604 128° Southeast 174 200 7,500  Level FlightAware UK
10:29AM 56.2410 -5.3426 126° Southeast 174 200 7,500  Level FlightAware UK
10:29AM 56.2341 -5.3244 124° Southeast 174 200 7,500  Level FlightAware UK
10:30AM 56.2278 -5.3057 121° Southeast 174 200 7,500 -360 Level FlightAware UK
10:30AM 56.2213 -5.2864 121° Southeast 174 200 7,300  Descending FlightAware UK
10:30AM 56.2149 -5.2669 121° Southeast 174 200 7,500 240 Climbing FlightAware UK
10:31AM 56.2060 -5.2414 122° Southeast 130 150 7,500  Level FlightAware UK
10:31AM 56.1995 -5.2222 121° Southeast 174 200 7,500 -180 Level FlightAware UK
10:31AM 56.1926 -5.2032 123° Southeast 174 200 7,400  Descending FlightAware UK
10:31AM 56.1859 -5.1844 123° Southeast 174 200 7,500  Climbing FlightAware UK
10:32AM 56.1785 -5.1668 127° Southeast 174 200 7,400 -180 Descending FlightAware UK
10:32AM 56.1707 -5.1495 129° Southeast 174 200 7,400 120 Level FlightAware UK
10:32AM 56.1628 -5.1326 130° Southeast 174 200 7,500 120 Climbing FlightAware UK
10:33AM 56.1557 -5.1162 128° Southeast 174 200 7,500  Level FlightAware UK
10:33AM 56.1479 -5.0993 130° Southeast 174 200 7,500  Level FlightAware UK
10:33AM 56.1401 -5.0827 130° Southeast 174 200 7,500  Level FlightAware UK
10:34AM 56.1324 -5.0661 130° Southeast 174 200 7,500  Level FlightAware UK
10:34AM 56.1250 -5.0493 128° Southeast 174 200 7,500  Level FlightAware UK
10:34AM 56.1177 -5.0323 128° Southeast 174 200 7,500 -180 Level FlightAware UK
10:35AM 56.1082 -5.0097 127° Southeast 130 150 7,400 -180 Descending FlightAware UK
10:35AM 56.1079 -4.9857 91° East 174 200 7,400  Level FlightAware UK
10:35AM 56.1090 -4.9607 86° East 174 200 7,400  Level FlightAware UK
10:35AM 56.1106 -4.9358 83° East 174 200 7,400  Level FlightAware UK
10:36AM 56.1119 -4.9110 85° East 174 200 7,400 120 Level FlightAware UK
10:36AM 56.1130 -4.8859 85° East 165 190 7,500 120 Climbing FlightAware UK
10:36AM 56.1112 -4.8618 98° East 174 200 7,500 -180 Level FlightAware UK
10:37AM 56.1101 -4.8371 95° East 174 200 7,400 -540 Descending FlightAware UK
10:37AM 56.1091 -4.8117 94° East 174 200 7,200 -720 Descending FlightAware UK
10:37AM 56.1077 -4.7858 95° East 174 200 7,000 -720 Descending FlightAware UK
10:38AM 56.1054 -4.7601 99° East 174 200 6,800 -720 Descending FlightAware UK
10:38AM 56.1033 -4.7338 98° East 174 200 6,600 -720 Descending FlightAware UK
10:38AM 56.1009 -4.7078 99° East 174 200 6,400 -540 Descending FlightAware UK
10:38AM 56.0990 -4.6816 97° East 174 200 6,300 -540 Descending FlightAware UK
10:39AM 56.0972 -4.6552 97° East 174 200 6,100 -720 Descending FlightAware UK
10:39AM 56.0953 -4.6287 97° East 174 200 5,900 -720 Descending FlightAware UK
10:39AM 56.0937 -4.6021 96° East 174 200 5,700 -540 Descending FlightAware UK
10:40AM 56.0923 -4.5758 96° East 174 200 5,600 -540 Descending FlightAware UK
10:40AM 56.0910 -4.5496 95° East 174 200 5,400 -720 Descending FlightAware UK
10:40AM 56.0893 -4.5237 97° East 174 200 5,200 -720 Descending FlightAware UK
10:41AM 56.0877 -4.4977 96° East 174 200 5,000 -180 Descending FlightAware UK
10:41AM 56.0860 -4.4719 97° East 174 200 5,100 120 Climbing FlightAware UK
10:41AM 56.0847 -4.4473 95° East 174 200 5,100 -360 Level FlightAware UK
10:41AM 56.0839 -4.4233 94° East 174 200 4,900 -180 Descending FlightAware UK
10:42AM 56.0802 -4.4002 106° East 174 200 5,000 300 Climbing FlightAware UK
10:42AM 56.0759 -4.3790 110° East 174 200 5,100 120 Climbing FlightAware UK
10:42AM 56.0714 -4.3582 111° Southeast 174 200 5,100  Level FlightAware UK
10:43AM 56.0666 -4.3374 112° Southeast 174 200 5,100 -720 Level FlightAware UK
10:43AM 56.0608 -4.3155 115° Southeast 174 200 4,700 -1,020 Descending FlightAware UK
10:43AM 56.0535 -4.2861 114° Southeast 130 150 4,400 -720 Descending FlightAware UK
10:44AM 56.0482 -4.2643 113° Southeast 174 200 4,200 -720 Descending FlightAware UK
10:44AM 56.0426 -4.2431 115° Southeast 174 200 4,000 -720 Descending FlightAware UK
10:44AM 56.0365 -4.2227 118° Southeast 174 200 3,800 -720 Descending FlightAware UK
10:45AM 56.0286 -4.2056 130° Southeast 174 200 3,600 -540 Descending FlightAware UK
10:45AM 56.0171 -4.2025 171° South 174 200 3,500 -360 Descending FlightAware UK
10:45AM 56.0056 -4.2061 190° South 174 200 3,400 -600 Descending FlightAware UK
10:46AM 55.9912 -4.2160 201° Southwest 130 150 3,100 -780 Descending FlightAware UK
10:46AM 55.9778 -4.2325 214° Southwest 130 150 2,800 -600 Descending FlightAware UK
10:46AM 55.9683 -4.2458 218° Southwest 174 200 2,700 -540 Descending FlightAware UK
10:47AM 55.9608 -4.2621 231° Southwest 174 200 2,500 -720 Descending FlightAware UK
10:47AM 55.9541 -4.2767 231° Southwest 174 200 2,300 -840 Descending FlightAware UK
10:47AM 55.9487 -4.2901 234° Southwest 174 200 2,000 -720 Descending FlightAware UK
10:48AM 55.9415 -4.3046 228° Southwest 130 150 1,800 -420 Descending FlightAware UK
10:48AM 55.9284 -4.3289 230° Southwest 104 120 1,500 -480 Descending FlightAware UK
10:49AM 55.9231 -4.3383 225° Southwest 174 200 1,300 -540 Descending FlightAware UK
10:49AM 55.9180 -4.3483 228° Southwest 174 200 1,200 -540 Descending FlightAware UK
10:49AM 55.9124 -4.3579 224° Southwest 174 200 1,000 -540 Descending FlightAware UK
10:50AM 55.9063 -4.3678 222° Southwest 174 200 900 -480 Descending FlightAware UK
10:50AM 55.8993 -4.3822 229° Southwest 130 150 700 -480 Descending FlightAware UK
10:50AM 55.8939 -4.3925 227° Southwest 174 200 600 -480 Descending FlightAware UK
10:51AM 55.8832 -4.4124 226° Southwest 87 100 300 -600 Descending FlightAware UK
10:51AM 55.8778 -4.4225 226° Southwest 174 200 100 -720 Descending FlightAware UK
10:53AM 55.8719 -4.4331 225° Southwest  Level Estimated